Weather at Rome–Fiumicino Leonardo da Vinci International Airport

Public forecast

Using degrees Celsius for public forecast. Weather courtesy of forecast.io.

Current aviation weather report (METAR) for Rome–Fiumicino Leonardo da Vinci International Airport

2024/02/25 12:20 (retrieved 21 minutes ago)

LIRF 251220Z 27005KT 240V310 9999 FEW040 14/07 Q1009 NOSIG

Aviation forecast (TAF) for Rome–Fiumicino Leonardo da Vinci International Airport

2024/02/25 12:00 (retrieved 41 minutes ago)

TAF LIRF 251100Z 2512/2618 07008KT 9999 SCT030 BECMG 2512/2514 32012KT BECMG 2522/2524 06007KT BECMG 2608/2610 15015G25KT BECMG 2611/2613 RA